Andraz Bijol

Scout - NK Maribor
3 Dec 2028
Sunday
Process

Personality

Adaptability (17) Ambition (12) Controversy (19) Loyalty (18) Pressure (1) Professionalism (8) Sportsmanship (11) Temperament (17)

Profile

Coaching Style Democratic
License Continental B
Determination 7
Man Management 12
Motivating 11
Discipline 9
Job Satisfaction
100%
Fatigue
0%
Role Scout
Wage 31.0K p/w
Contract 14.03.2029

Performance

Behaviour Good
Training Effectiveness
40%
Player Development
30%
Injury Prevention
30%
Tactical Implementation
45%

Recent Events

Attended a recruitment meeting 7d ago
Assessed a player 7d ago
Assessed a player 7d ago
Assessed a player 7d ago
Attended a recruitment meeting 14d ago
Assessed a player 14d ago
Observed a match 14d ago
Assessed a player 21d ago

Currently Monitoring

72
Player Club Status Ability Confidence Watched Last Observed Latest Vote
Vicente Poggi Godoy Cruz Active 121 / 131 40% 1 25.11.2028 -
Augusto Schott Talleres Active 119 / 113 40% 1 25.11.2028 -
Felipe Peña Biafore Lanús Active 140 / 140 40% 2 24.11.2028 -
Riku Yamane Yokohama F. Marinos Active 147 / 127 40% 1 24.11.2028 -
Julián Palacios Envigado Active 109 / 115 40% 1 23.11.2028 -
Emanuel Mammana Vélez Active 125 / 139 40% 1 23.11.2028 -
Gianluca Ferrari Atlético Tucumán Active 110 / 129 40% 2 22.11.2028 -
Lautaro Vargas Unión de Santa Fe Active 125 / 111 40% 1 22.11.2028 -
Juan Infante Atlético Tucumán Active 133 / 110 40% 1 17.11.2028 -
César Ibáñez Huracán Active 123 / 123 40% 1 17.11.2028 -
Gastón Hernández San Lorenzo Active 135 / 138 40% 1 12.11.2028 -
Sheyko Studer Independiente Rivadavia Active 122 / 112 40% 1 12.11.2028 -
Fabricio Corbalán Gimnasia La Plata Active 120 / 112 40% 2 30.10.2028 -
Kevin López Independiente Active 138 / 129 40% 1 30.10.2028 -
Pedro Souto Temperley Active 131 / 121 40% 3 29.10.2028 -
Mateo Seoane Gimnasia La Plata Active 113 / 112 40% 1 28.10.2028 -
Alan Rodríguez Rosario Central Active 114 / 123 40% 1 26.10.2028 -
Gonzalo Pérez Lanús Active 118 / 119 40% 1 26.10.2028 -
Tomás Porra Barracas Central Active 131 / 115 40% 2 25.10.2028 -
Valentín Moreno Tigre Active 134 / 120 40% 1 25.10.2028 -
Franco Díaz Temperley Active 121 / 128 40% 2 21.10.2028 -
Alcides Benítez Belgrano Active 129 / 107 40% 1 14.10.2028 -
Ignacio Abraham Banfield Active 119 / 107 40% 1 12.10.2028 -
Siro Rosané Estudiantes Active 131 / 105 40% 1 12.10.2028 -
Adrián Sánchez Belgrano Active 137 / 119 40% 2 11.10.2028 -
Tobías Leiva Estudiantes Active 126 / 110 40% 2 11.10.2028 -
Emanuel Coronel Rosario Central Active 140 / 115 40% 1 10.10.2028 -
Koffi Kouao Neftchi Active 136 / 129 40% 1 07.10.2028 -
Matías Machado Racing Active 113 / 117 40% 1 04.10.2028 -
Njabulo Blom Pakhtakor Active 128 / 127 40% 1 06.09.2028 -
Lucas Martínez Quarta Central Córdoba SdE Active 140 / 119 40% 1 05.09.2028 -
Alessandro Arena Arezzo Active 134 / 113 40% 1 01.08.2028 -
Armand Laurienté Sassuolo Active 144 / 149 40% 1 01.08.2028 -
Marco Tumminello Benevento Active 112 / 128 40% 1 25.07.2028 -
Malik Mothersille Stockport County Active 130 / 124 40% 1 25.07.2028 -
Reuell Walters Luton Town Active 128 / 130 40% 1 31.05.2028 -
Patrick Roberts Birmingham Active 139 / 121 40% 1 31.05.2028 -
Ludovico Del Sorbo Sorrento Active 135 / 123 40% 1 31.05.2028 -
Matías Arias Vélez Active 132 / 137 40% 1 17.01.2028 -
Artur Kozyrev Volna Active 98 / 92 40% 1 17.01.2028 -
Ryan Kavuma-McQueen Accrington Stanley Active 100 / 140 40% 1 31.12.2027 -
Chimobi Igwilo Rangers International Active 99 / 89 40% 1 31.12.2027 -
Francisco Machis Llaneros Active 82 / 90 40% 1 06.07.2027 -
Adam Boufandar Pro Vercelli Active 87 / 103 40% 1 14.06.2027 -
Leandro Martins Benfica Active 110 / 101 40% 1 14.06.2027 -
Hosea Michael Remo Stars Active 86 / 87 40% 1 18.05.2027 -
Gady Beyuku Blackburn Rovers Active 120 / 104 40% 1 13.05.2027 -
Samuele di Benedetto Twente Active 97 / 110 40% 3 12.05.2027 -
Rhys Walters Port Vale Active 109 / 117 40% 1 12.05.2027 -
Alessandro Zoboletti Sambenedettese Active 79 / 102 40% 1 07.05.2027 -
Maxim Radchenko Rostov Active 82 / 79 40% 1 03.05.2027 -
Yegor Vedernikov Irkutsk Active 86 / 70 40% 2 01.05.2027 -
Kazunari Kita Real Sociedad Active 90 / 118 40% 1 29.04.2027 -
Tiago Freitas Benfica Active 107 / 99 40% 1 28.04.2027 -
Sascha Britschgi AC Milan Active 127 / 131 40% 1 27.04.2027 -
Konta Ismaily Active 106 / 106 40% 1 25.04.2027 -
Chari Giwa US Bougouni Active 68 / 70 40% 1 21.04.2027 -
Lucan Louw US Bougouni Active 85 / 80 40% 1 17.04.2027 -
Ezra Mayers West Ham United Active 132 / 127 40% 1 10.04.2027 -
Manu Morlanes Mallorca Active 131 / 124 40% 1 31.12.2026 -
Ferland Mendy Real Madrid Active 158 / 136 40% 2 13.12.2026 -
Danil Glebov Dinamo Moscow Active 121 / 130 40% 2 13.12.2026 -
Eldar Ćivić Baltika Active 120 / 128 40% 1 08.12.2026 -
Dean Campbell Northampton Town Active 108 / 112 40% 1 21.11.2026 -
Stefan Kovač Baltika Active 108 / 108 40% 1 06.11.2026 -
Luka Vešner Tičić NK Celje Active 124 / 124 40% 1 05.11.2026 -
Andrés Alarcón Dinamo Makhachkala Active 112 / 125 40% 1 18.10.2026 -
Yves Bissouma Tottenham Active 147 / 141 40% 1 16.10.2026 -
Fredéric Ananou Olimpija Ljubljana Active 95 / 107 40% 1 12.10.2026 -
Johnly Yfeko Exeter City Active 125 / 101 40% 1 11.10.2026 -
Facundo Miño Deportivo Riestra Active 116 / 129 40% 1 05.10.2026 -
Dwight McNeil Crystal Palace Active 145 / 127 40% 1 02.08.2026 -